Iblea — IBFK — position and weather

sailwx.info

Track history (hours):
 
Tides and Currents Weather Stations Pressure Air Temp Water Temp Dewpoint Dewpoint Depression Visibility Wind Speed Wind Dir Waves Ship Positions

Iblea

Last reported at 2014-Dec-10 18:18 UTC. Time now 2014-Dec-18 02:33 UTC.
Position N 37°17' E 023°54'.

Length 176 m; draft 10.9 m.

Type: Ship (hazmat cat C). MMSI: 247087700.

Date/timePositionNaut miles runAvg speedWind from/ knotsBaromVisibWave heightAir tempDewpointWater temp
2014-Dec-10 18:18N 37°17' E 023°54'1013.4
2014-Dec-10 17:33N 37°26' E 024°00'1613.8
2014-Dec-10 16:24N 37°40' E 024°11'1213.3
2014-Dec-10 15:32N 37°48' E 024°20'1414.0
2014-Dec-10 14:33N 37°56' E 024°35'1414.1
2014-Dec-10 13:32N 38°09' E 024°43'  
2014-Dec-04 09:26N 38°18' E 025°02'1314.3
2014-Dec-04 08:30N 38°09' E 024°50'1414.4
2014-Dec-04 07:31N 37°58' E 024°38'1414.2
2014-Dec-04 06:34N 37°49' E 024°26'1413.9
2014-Dec-04 05:33N 37°39' E 024°13'1414.2
2014-Dec-04 04:33N 37°27' E 024°04'1514.6
2014-Dec-04 03:33N 37°14' E 023°54'1514.8
2014-Dec-04 02:33N 37°01' E 023°45'1514.6
2014-Dec-04 01:33N 36°49' E 023°35'1514.5
2014-Dec-04 00:31N 36°36' E 023°25'2512.0
2014-Dec-03 22:27N 36°25' E 022°58'  
Track history (hours):
 
Tides and Currents Weather Stations Pressure Air Temp Water Temp Dewpoint Dewpoint Depression Visibility Wind Speed Wind Dir Waves Ship Positions

Iblea

Last reported at 2014-Dec-10 18:18 UTC. Time now 2014-Dec-18 02:33 UTC.
Position N 37°17' E 023°54'.

Length 176 m; draft 10.9 m.

Type: Ship (hazmat cat C). MMSI: 247087700.

Date/timePositionNaut miles runAvg speedWind from/ knotsBaromVisibWave heightAir tempDewpointWater temp
2014-Dec-10 18:18N 37°17' E 023°54'1013.4
2014-Dec-10 17:33N 37°26' E 024°00'1613.8
2014-Dec-10 16:24N 37°40' E 024°11'1213.3
2014-Dec-10 15:32N 37°48' E 024°20'1414.0
2014-Dec-10 14:33N 37°56' E 024°35'1414.1
2014-Dec-10 13:32N 38°09' E 024°43'  
2014-Dec-04 09:26N 38°18' E 025°02'1314.3
2014-Dec-04 08:30N 38°09' E 024°50'1414.4
2014-Dec-04 07:31N 37°58' E 024°38'1414.2
2014-Dec-04 06:34N 37°49' E 024°26'1413.9
2014-Dec-04 05:33N 37°39' E 024°13'1414.2
2014-Dec-04 04:33N 37°27' E 024°04'1514.6
2014-Dec-04 03:33N 37°14' E 023°54'1514.8
2014-Dec-04 02:33N 37°01' E 023°45'1514.6
2014-Dec-04 01:33N 36°49' E 023°35'1514.5
2014-Dec-04 00:31N 36°36' E 023°25'2512.0
2014-Dec-03 22:27N 36°25' E 022°58'  

Dump ship's entire track history